createdAt,value
2017-08-30T00:00:28.804Z,64.64
2017-08-30T00:05:31.466Z,65.93
2017-08-30T00:10:34.494Z,65.99
2017-08-30T00:15:37.109Z,64.92
2017-08-30T00:20:39.772Z,64.92
2017-08-30T00:26:00.438Z,65.04
2017-08-30T00:31:03.186Z,65.21
2017-08-30T00:36:05.565Z,65.14
2017-08-30T00:41:08.347Z,64.89
2017-08-30T00:46:11.032Z,64.58
2017-08-30T00:51:13.778Z,64.65
2017-08-30T00:56:16.527Z,64.81
2017-08-30T01:01:18.940Z,64.56
2017-08-30T01:06:21.587Z,64.68
2017-08-30T01:11:23.932Z,64.73
2017-08-30T01:16:26.001Z,65.15
2017-08-30T01:21:28.782Z,65.69
2017-08-30T01:26:30.752Z,66.50
2017-08-30T01:31:33.390Z,65.56
2017-08-30T01:36:35.770Z,65.57
2017-08-30T01:41:38.076Z,65.66
2017-08-30T01:46:41.285Z,65.92
2017-08-30T01:51:43.923Z,65.82
2017-08-30T01:56:47.035Z,66.22
2017-08-30T02:01:49.751Z,66.16
2017-08-30T02:06:52.376Z,65.90
2017-08-30T02:11:54.985Z,65.08
2017-08-30T02:16:57.566Z,64.45
2017-08-30T02:22:00.315Z,64.10
2017-08-30T02:27:02.380Z,63.64
2017-08-30T02:32:05.100Z,63.23
2017-08-30T02:37:07.856Z,63.23
2017-08-30T02:42:10.514Z,63.32
2017-08-30T02:47:13.186Z,63.65
2017-08-30T02:52:20.996Z,63.08
2017-08-30T02:57:28.304Z,62.70
2017-08-30T03:02:32.107Z,62.00
2017-08-30T03:07:34.901Z,61.17
2017-08-30T03:12:38.104Z,60.75
2017-08-30T03:17:41.241Z,60.44
2017-08-30T03:22:44.710Z,61.16
2017-08-30T03:27:47.335Z,61.18
2017-08-30T03:32:50.012Z,61.26
2017-08-30T03:37:52.897Z,61.57
2017-08-30T03:42:57.298Z,62.27
2017-08-30T03:48:01.338Z,61.75
2017-08-30T03:53:05.108Z,61.46
2017-08-30T03:58:07.733Z,61.69
2017-08-30T04:03:10.670Z,62.10
2017-08-30T04:08:13.781Z,62.40
2017-08-30T04:13:16.017Z,62.09
2017-08-30T04:18:19.073Z,61.57
2017-08-30T04:23:21.825Z,60.65
2017-08-30T04:28:24.342Z,60.73
2017-08-30T04:33:26.339Z,60.96
2017-08-30T04:38:28.843Z,60.81
2017-08-30T04:43:31.448Z,61.23
2017-08-30T04:48:36.328Z,61.46
2017-08-30T04:53:38.327Z,62.01
2017-08-30T04:58:40.323Z,62.07
2017-08-30T05:03:42.311Z,62.08
2017-08-30T05:08:44.307Z,61.97
2017-08-30T05:13:46.309Z,61.51
2017-08-30T05:18:50.668Z,60.70
2017-08-30T05:23:52.672Z,60.38
2017-08-30T05:29:05.980Z,59.56
2017-08-30T05:34:09.922Z,58.82
2017-08-30T05:39:14.089Z,57.71
2017-08-30T05:44:17.198Z,56.67
2017-08-30T05:49:24.588Z,56.08
2017-08-30T05:54:26.759Z,55.79
2017-08-30T05:59:28.773Z,55.68
2017-08-30T06:04:30.901Z,55.42
2017-08-30T06:09:33.815Z,55.45
2017-08-30T06:14:37.512Z,55.27
2017-08-30T06:19:40.760Z,54.89
2017-08-30T06:24:46.520Z,54.40
2017-08-30T06:29:52.278Z,53.84
2017-08-30T06:34:59.505Z,53.54
2017-08-30T06:40:03.213Z,53.43
2017-08-30T06:45:07.072Z,53.50
2017-08-30T06:50:10.278Z,54.12
2017-08-30T06:55:16.835Z,54.88
2017-08-30T07:00:20.236Z,53.31
2017-08-30T07:05:24.228Z,52.29
2017-08-30T07:10:31.755Z,52.17
2017-08-30T07:15:36.909Z,51.42
2017-08-30T07:20:38.899Z,50.91
2017-08-30T07:25:41.362Z,50.40
2017-08-30T07:30:44.886Z,49.00
2017-08-30T07:35:49.016Z,46.84
2017-08-30T07:40:52.742Z,46.21
2017-08-30T07:45:56.727Z,46.81
2017-08-30T07:51:03.767Z,46.67
2017-08-30T07:56:08.620Z,46.67
2017-08-30T08:01:12.355Z,46.65
2017-08-30T08:06:20.220Z,46.91
2017-08-30T08:11:26.507Z,46.81
2017-08-30T08:16:31.320Z,46.17
2017-08-30T08:21:34.964Z,45.72
2017-08-30T08:26:37.603Z,44.90
2017-08-30T08:31:40.219Z,44.75
2017-08-30T08:36:42.666Z,44.15
2017-08-30T08:41:46.132Z,43.15
2017-08-30T08:46:49.990Z,43.81
2017-08-30T08:51:52.314Z,42.69
2017-08-30T08:56:54.616Z,43.04
2017-08-30T09:01:56.865Z,42.83
2017-08-30T09:06:59.081Z,41.78
2017-08-30T09:12:01.326Z,41.64
2017-08-30T09:17:03.797Z,41.12
2017-08-30T09:22:06.171Z,41.04
2017-08-30T09:27:08.744Z,41.51
2017-08-30T09:32:10.980Z,41.81
2017-08-30T09:37:13.418Z,41.61
2017-08-30T09:42:15.783Z,41.97
2017-08-30T09:47:21.139Z,41.73
2017-08-30T09:52:26.159Z,41.29
2017-08-30T09:57:31.411Z,40.75
2017-08-30T10:02:35.707Z,40.51
2017-08-30T10:07:39.934Z,39.68
2017-08-30T10:12:44.730Z,39.06
2017-08-30T10:17:49.880Z,39.37
2017-08-30T10:22:55.113Z,39.00
2017-08-30T10:27:58.808Z,38.62
2017-08-30T10:33:02.303Z,37.65
2017-08-30T10:38:06.772Z,37.31
2017-08-30T10:43:21.685Z,37.69
2017-08-30T10:48:25.092Z,36.74
2017-08-30T10:53:30.940Z,37.02
2017-08-30T10:58:33.556Z,38.32
2017-08-30T11:03:35.921Z,38.64
2017-08-30T11:08:38.365Z,38.29
2017-08-30T11:13:45.186Z,37.46
2017-08-30T11:18:47.475Z,36.40
2017-08-30T11:23:50.034Z,35.77
2017-08-30T11:28:52.615Z,36.17
2017-08-30T11:33:54.947Z,35.53
2017-08-30T11:39:04.128Z,34.52
2017-08-30T11:44:06.419Z,33.91
2017-08-30T11:49:08.623Z,33.79
2017-08-30T11:54:12.997Z,32.87
2017-08-30T11:59:16.518Z,34.43
2017-08-30T12:04:22.533Z,34.78
2017-08-30T12:09:24.889Z,37.44
2017-08-30T12:14:29.765Z,36.58
2017-08-30T12:19:32.298Z,37.80
2017-08-30T12:24:35.024Z,38.73
2017-08-30T12:29:37.339Z,38.01
2017-08-30T12:34:39.812Z,38.31
2017-08-30T12:39:42.353Z,40.16
2017-08-30T12:44:44.857Z,40.90
2017-08-30T12:49:47.908Z,40.65
2017-08-30T12:54:50.386Z,40.69
2017-08-30T12:59:52.763Z,40.60
2017-08-30T13:04:55.207Z,40.01
2017-08-30T13:09:57.692Z,39.68
2017-08-30T13:15:09.176Z,38.75
2017-08-30T13:20:12.398Z,37.69
2017-08-30T13:25:14.929Z,36.60
2017-08-30T13:30:17.965Z,36.56
2017-08-30T13:35:20.530Z,36.96
2017-08-30T13:40:24.282Z,36.86
2017-08-30T13:45:27.589Z,37.06
2017-08-30T13:50:30.288Z,36.87
2017-08-30T13:55:32.706Z,36.64
2017-08-30T14:00:35.046Z,35.82
2017-08-30T14:05:38.117Z,35.83
2017-08-30T14:10:40.088Z,35.47
2017-08-30T14:15:42.135Z,35.50
2017-08-30T14:20:44.129Z,35.25
2017-08-30T14:25:46.845Z,34.34
2017-08-30T14:30:49.181Z,34.35
2017-08-30T14:35:51.500Z,34.94
2017-08-30T14:40:53.766Z,34.70
2017-08-30T14:45:56.085Z,34.90
2017-08-30T14:50:59.643Z,35.03
2017-08-30T14:56:01.895Z,35.02
2017-08-30T15:01:04.132Z,35.23
2017-08-30T15:06:06.097Z,35.41
2017-08-30T15:11:08.558Z,35.52
2017-08-30T15:16:10.852Z,36.98
2017-08-30T15:21:12.845Z,37.46
2017-08-30T15:26:14.825Z,37.66
2017-08-30T15:31:16.785Z,37.63
2017-08-30T15:36:18.946Z,37.22
2017-08-30T15:41:21.152Z,37.21
2017-08-30T15:46:23.193Z,37.44
2017-08-30T15:51:25.185Z,38.24
2017-08-30T15:56:27.132Z,38.62
2017-08-30T16:01:29.109Z,39.47
2017-08-30T16:06:31.049Z,39.17
2017-08-30T16:11:34.304Z,39.36
2017-08-30T16:16:36.568Z,39.74
2017-08-30T16:21:39.876Z,40.28
2017-08-30T16:26:42.159Z,40.96
2017-08-30T16:31:44.388Z,41.39
2017-08-30T16:36:46.807Z,41.73
2017-08-30T16:41:49.265Z,42.04
2017-08-30T16:46:52.077Z,42.32
2017-08-30T16:51:54.522Z,42.79
2017-08-30T16:56:56.878Z,42.80
2017-08-30T17:01:59.254Z,43.04
2017-08-30T17:07:01.541Z,43.59
2017-08-30T17:12:04.058Z,44.83
2017-08-30T17:17:06.383Z,45.50
2017-08-30T17:22:08.914Z,45.98
2017-08-30T17:27:11.209Z,46.66
2017-08-30T17:32:13.231Z,47.49
2017-08-30T17:37:15.206Z,47.93
2017-08-30T17:42:18.635Z,48.40
2017-08-30T17:47:20.705Z,48.64
2017-08-30T17:52:22.703Z,49.13
2017-08-30T17:57:24.856Z,49.72
2017-08-30T18:02:26.877Z,50.07
2017-08-30T18:07:28.875Z,50.63
2017-08-30T18:12:30.914Z,51.15
2017-08-30T18:17:33.266Z,51.84
2017-08-30T18:22:37.795Z,52.71
2017-08-30T18:27:42.344Z,53.45
2017-08-30T18:32:44.890Z,54.18
2017-08-30T18:37:52.337Z,55.17
2017-08-30T18:42:58.227Z,59.58
2017-08-30T18:48:01.313Z,62.87
2017-08-30T18:53:03.447Z,67.74
2017-08-30T18:58:06.027Z,69.80
2017-08-30T19:03:08.085Z,69.19
2017-08-30T19:08:10.386Z,70.49
2017-08-30T19:13:12.958Z,70.55
2017-08-30T19:18:15.246Z,71.57
2017-08-30T19:23:17.749Z,73.65
2017-08-30T19:28:19.905Z,72.99
2017-08-30T19:33:22.061Z,72.42
2017-08-30T19:38:24.301Z,72.87
2017-08-30T19:43:26.659Z,73.05
2017-08-30T19:48:33.833Z,73.71
2017-08-30T19:53:36.181Z,73.00
2017-08-30T19:58:38.595Z,72.61
2017-08-30T20:03:44.249Z,72.87
2017-08-30T20:08:46.491Z,72.58
2017-08-30T20:13:48.773Z,72.86
2017-08-30T20:18:51.061Z,73.34
2017-08-30T20:23:54.643Z,72.86
2017-08-30T20:28:56.635Z,72.68
2017-08-30T20:33:58.590Z,73.97
2017-08-30T20:39:00.572Z,73.81
2017-08-30T20:44:02.621Z,73.12
2017-08-30T20:49:04.656Z,73.56
2017-08-30T20:54:06.619Z,73.74
2017-08-30T20:59:08.543Z,74.03
2017-08-30T21:04:10.528Z,74.32
2017-08-30T21:09:12.528Z,73.94
2017-08-30T21:14:14.522Z,74.00
2017-08-30T21:19:16.505Z,73.79
2017-08-30T21:24:18.585Z,73.13
2017-08-30T21:29:20.720Z,74.04
2017-08-30T21:34:23.291Z,75.49
2017-08-30T21:39:25.312Z,75.81
2017-08-30T21:44:27.271Z,75.97
2017-08-30T21:49:29.215Z,76.07
2017-08-30T21:54:33.120Z,76.24
2017-08-30T21:59:36.692Z,76.36
2017-08-30T22:04:38.833Z,76.30
2017-08-30T22:09:40.793Z,76.44
2017-08-30T22:14:42.792Z,76.22
2017-08-30T22:19:44.795Z,76.13
2017-08-30T22:24:46.843Z,76.29
2017-08-30T22:29:48.951Z,76.25
2017-08-30T22:34:51.054Z,76.33
2017-08-30T22:39:53.165Z,76.09
2017-08-30T22:44:55.147Z,75.93
2017-08-30T22:49:57.128Z,76.27
2017-08-30T22:54:59.112Z,76.45
2017-08-30T23:00:01.087Z,76.52
2017-08-30T23:05:03.852Z,76.28
2017-08-30T23:10:06.493Z,76.52
2017-08-30T23:15:08.453Z,76.61
2017-08-30T23:20:10.931Z,76.54
2017-08-30T23:25:12.971Z,76.78
2017-08-30T23:30:14.950Z,76.99
2017-08-30T23:35:16.943Z,76.78
2017-08-30T23:40:19.067Z,76.79
2017-08-30T23:45:21.333Z,76.67
2017-08-30T23:50:23.420Z,76.56
2017-08-30T23:55:25.390Z,76.15
